Terminal Aerodrome Forecast
Issued by NWS

Home | Current Version | Previous Version | Text Only | Print | Product List | Glossary On
Versions: 1 2 3 4 5 6 7 8 9 10 11 12 13 14 15 16 17 18
000
FTPA31 PHFO 212321
TAFHMK
TAF
PHMK 212321Z 2200/2224 05016G24KT P6SM FEW020 SCT040 SCT070
     FM220900 05010KT P6SM FEW020 SCT040
     FM222100 05014G20KT P6SM FEW040 SCT070=

USA.gov is the U.S. government's official web portal to all federal, state and local government web resources and services.